ESOK 130550Z AUTO 34008KT 9999 R03/P1500N R21///// ////// 14/10 Q1017